sensor_id;sensor_type;location;lat;lon;timestamp;pressure;altitude;pressure_sealevel;temperature;humidity
9077;BME280;4574;51.072;17.174;2023-11-21T00:00:09;99349.47;;;9.07;100.00
9077;BME280;4574;51.072;17.174;2023-11-21T00:02:41;99346.66;;;9.08;100.00
9077;BME280;4574;51.072;17.174;2023-11-21T00:05:11;99353.44;;;9.11;100.00
9077;BME280;4574;51.072;17.174;2023-11-21T00:07:41;99354.56;;;9.08;100.00
9077;BME280;4574;51.072;17.174;2023-11-21T00:10:11;99354.09;;;9.05;100.00
9077;BME280;4574;51.072;17.174;2023-11-21T00:12:42;99354.09;;;9.05;100.00
9077;BME280;4574;51.072;17.174;2023-11-21T00:15:10;99366.59;;;9.03;100.00
9077;BME280;4574;51.072;17.174;2023-11-21T00:17:40;99359.69;;;9.02;100.00
9077;BME280;4574;51.072;17.174;2023-11-21T00:20:10;99351.09;;;9.00;100.00
9077;BME280;4574;51.072;17.174;2023-11-21T00:22:40;99372.88;;;9.02;100.00
9077;BME280;4574;51.072;17.174;2023-11-21T00:25:10;99370.22;;;9.02;100.00
9077;BME280;4574;51.072;17.174;2023-11-21T00:27:39;99365.59;;;8.96;100.00
9077;BME280;4574;51.072;17.174;2023-11-21T00:30:09;99377.47;;;9.00;100.00
9077;BME280;4574;51.072;17.174;2023-11-21T00:32:37;99381.41;;;8.96;100.00
9077;BME280;4574;51.072;17.174;2023-11-21T00:35:08;99377.13;;;8.95;100.00
9077;BME280;4574;51.072;17.174;2023-11-21T00:37:37;99377.13;;;8.95;100.00
9077;BME280;4574;51.072;17.174;2023-11-21T00:40:07;99380.06;;;8.92;100.00
9077;BME280;4574;51.072;17.174;2023-11-21T00:42:36;99382.84;;;8.90;100.00
9077;BME280;4574;51.072;17.174;2023-11-21T00:45:06;99375.78;;;8.91;100.00
9077;BME280;4574;51.072;17.174;2023-11-21T00:47:35;99376.78;;;8.90;100.00
9077;BME280;4574;51.072;17.174;2023-11-21T00:50:05;99380.22;;;8.90;100.00
9077;BME280;4574;51.072;17.174;2023-11-21T00:52:35;99374.28;;;8.88;100.00
9077;BME280;4574;51.072;17.174;2023-11-21T00:55:05;99384.03;;;8.88;100.00
9077;BME280;4574;51.072;17.174;2023-11-21T00:57:35;99381.88;;;8.91;100.00
9077;BME280;4574;51.072;17.174;2023-11-21T01:00:05;99375.94;;;8.89;100.00
9077;BME280;4574;51.072;17.174;2023-11-21T01:02:36;99377.09;;;8.87;100.00
9077;BME280;4574;51.072;17.174;2023-11-21T01:05:06;99375.78;;;8.91;100.00
9077;BME280;4574;51.072;17.174;2023-11-21T01:07:37;99383.16;;;8.87;100.00
9077;BME280;4574;51.072;17.174;2023-11-21T01:10:06;99382.34;;;8.87;100.00
9077;BME280;4574;51.072;17.174;2023-11-21T01:12:35;99387.63;;;8.87;100.00
9077;BME280;4574;51.072;17.174;2023-11-21T01:15:06;99378.22;;;8.84;100.00
9077;BME280;4574;51.072;17.174;2023-11-21T01:17:35;99379.38;;;8.82;100.00
9077;BME280;4574;51.072;17.174;2023-11-21T01:20:06;99386.78;;;8.86;100.00
9077;BME280;4574;51.072;17.174;2023-11-21T01:22:41;99387.78;;;8.85;100.00
9077;BME280;4574;51.072;17.174;2023-11-21T01:25:10;99377.72;;;8.81;100.00
9077;BME280;4574;51.072;17.174;2023-11-21T01:27:41;99381.03;;;8.83;100.00
9077;BME280;4574;51.072;17.174;2023-11-21T01:30:10;99384.66;;;8.82;100.00
9077;BME280;4574;51.072;17.174;2023-11-21T01:32:39;99391.22;;;8.78;100.00
9077;BME280;4574;51.072;17.174;2023-11-21T01:35:08;99396.19;;;8.81;100.00
9077;BME280;4574;51.072;17.174;2023-11-21T01:37:37;99401.28;;;8.82;100.00
9077;BME280;4574;51.072;17.174;2023-11-21T01:40:08;99395.34;;;8.80;100.00
9077;BME280;4574;51.072;17.174;2023-11-21T01:42:42;99391.56;;;8.83;100.00
9077;BME280;4574;51.072;17.174;2023-11-21T01:45:12;99395.56;;;8.87;100.00
9077;BME280;4574;51.072;17.174;2023-11-21T01:47:41;99394.09;;;8.92;100.00
9077;BME280;4574;51.072;17.174;2023-11-21T01:50:14;99397.03;;;8.89;100.00
9077;BME280;4574;51.072;17.174;2023-11-21T01:52:46;99393.59;;;8.89;100.00
9077;BME280;4574;51.072;17.174;2023-11-21T01:55:18;99389.06;;;8.81;100.00
9077;BME280;4574;51.072;17.174;2023-11-21T01:57:50;99392.06;;;8.86;100.00
9077;BME280;4574;51.072;17.174;2023-11-21T02:00:19;99396.53;;;8.86;100.00
9077;BME280;4574;51.072;17.174;2023-11-21T02:02:48;99394.88;;;8.85;100.00
9077;BME280;4574;51.072;17.174;2023-11-21T02:05:17;99396.19;;;8.81;100.00
9077;BME280;4574;51.072;17.174;2023-11-21T02:07:46;99394.34;;;8.81;100.00
9077;BME280;4574;51.072;17.174;2023-11-21T02:10:19;99394.34;;;8.81;100.00
9077;BME280;4574;51.072;17.174;2023-11-21T02:12:50;99387.09;;;8.83;100.00
9077;BME280;4574;51.072;17.174;2023-11-21T02:15:19;99387.94;;;8.84;100.00
9077;BME280;4574;51.072;17.174;2023-11-21T02:17:49;99398.16;;;8.79;100.00
9077;BME280;4574;51.072;17.174;2023-11-21T02:20:20;99385.41;;;8.74;100.00
9077;BME280;4574;51.072;17.174;2023-11-21T02:22:54;99399.13;;;8.78;100.00
9077;BME280;4574;51.072;17.174;2023-11-21T02:25:28;99397.66;;;8.83;100.00
9077;BME280;4574;51.072;17.174;2023-11-21T02:27:57;99397.47;;;8.77;100.00
9077;BME280;4574;51.072;17.174;2023-11-21T02:30:27;99398.28;;;8.77;100.00
9077;BME280;4574;51.072;17.174;2023-11-21T02:32:55;99400.63;;;8.80;100.00
9077;BME280;4574;51.072;17.174;2023-11-21T02:35:25;99404.41;;;8.78;100.00
9077;BME280;4574;51.072;17.174;2023-11-21T02:37:56;99408.03;;;8.77;100.00
9077;BME280;4574;51.072;17.174;2023-11-21T02:40:24;99407.72;;;8.80;100.00
9077;BME280;4574;51.072;17.174;2023-11-21T02:42:54;99412.00;;;8.81;100.00
9077;BME280;4574;51.072;17.174;2023-11-21T02:45:26;99404.22;;;8.79;100.00
9077;BME280;4574;51.072;17.174;2023-11-21T02:47:55;99405.75;;;8.82;100.00
9077;BME280;4574;51.072;17.174;2023-11-21T02:50:25;99400.47;;;8.82;100.00
9077;BME280;4574;51.072;17.174;2023-11-21T02:52:56;99406.06;;;8.79;100.00
9077;BME280;4574;51.072;17.174;2023-11-21T02:55:27;99404.41;;;8.78;100.00
9077;BME280;4574;51.072;17.174;2023-11-21T02:57:56;99414.13;;;8.77;100.00
9077;BME280;4574;51.072;17.174;2023-11-21T03:00:25;99407.72;;;8.80;100.00
9077;BME280;4574;51.072;17.174;2023-11-21T03:02:54;99412.00;;;8.81;100.00
9077;BME280;4574;51.072;17.174;2023-11-21T03:05:24;99419.75;;;8.82;100.00
9077;BME280;4574;51.072;17.174;2023-11-21T03:07:53;99412.69;;;8.83;100.00
9077;BME280;4574;51.072;17.174;2023-11-21T03:10:23;99410.72;;;8.85;100.00
9077;BME280;4574;51.072;17.174;2023-11-21T03:12:51;99411.03;;;8.82;100.00
9077;BME280;4574;51.072;17.174;2023-11-21T03:15:20;99409.06;;;8.84;100.00
9077;BME280;4574;51.072;17.174;2023-11-21T03:17:49;99405.44;;;8.85;100.00
9077;BME280;4574;51.072;17.174;2023-11-21T03:20:17;99408.75;;;8.87;100.00
9077;BME280;4574;51.072;17.174;2023-11-21T03:22:46;99410.72;;;8.85;100.00
9077;BME280;4574;51.072;17.174;2023-11-21T03:25:15;99419.00;;;8.90;100.00
9077;BME280;4574;51.072;17.174;2023-11-21T03:27:46;99416.34;;;8.90;100.00
9077;BME280;4574;51.072;17.174;2023-11-21T03:30:14;99423.28;;;8.91;100.00
9077;BME280;4574;51.072;17.174;2023-11-21T03:32:43;99418.63;;;8.85;100.00
9077;BME280;4574;51.072;17.174;2023-11-21T03:35:12;99417.34;;;8.89;100.00
9077;BME280;4574;51.072;17.174;2023-11-21T03:37:41;99421.47;;;8.91;100.00
9077;BME280;4574;51.072;17.174;2023-11-21T03:40:11;99426.25;;;8.88;100.00
9077;BME280;4574;51.072;17.174;2023-11-21T03:42:40;99432.19;;;8.90;100.00
9077;BME280;4574;51.072;17.174;2023-11-21T03:45:10;99438.97;;;8.92;100.00
9077;BME280;4574;51.072;17.174;2023-11-21T03:47:40;99429.56;;;8.90;100.00
9077;BME280;4574;51.072;17.174;2023-11-21T03:50:09;99434.84;;;8.90;100.00
9077;BME280;4574;51.072;17.174;2023-11-21T03:52:38;99426.59;;;8.93;100.00
9077;BME280;4574;51.072;17.174;2023-11-21T03:55:08;99435.63;;;8.90;100.00
9077;BME280;4574;51.072;17.174;2023-11-21T03:57:37;99435.63;;;8.90;100.00
9077;BME280;4574;51.072;17.174;2023-11-21T04:00:07;99434.84;;;8.90;100.00
9077;BME280;4574;51.072;17.174;2023-11-21T04:02:38;99433.69;;;8.92;100.00
9077;BME280;4574;51.072;17.174;2023-11-21T04:05:08;99438.81;;;8.94;100.00
9077;BME280;4574;51.072;17.174;2023-11-21T04:07:37;99436.13;;;8.86;100.00
9077;BME280;4574;51.072;17.174;2023-11-21T04:10:07;99438.44;;;8.89;100.00
9077;BME280;4574;51.072;17.174;2023-11-21T04:12:36;99432.56;;;8.95;100.00
9077;BME280;4574;51.072;17.174;2023-11-21T04:15:05;99435.34;;;8.93;100.00
9077;BME280;4574;51.072;17.174;2023-11-21T04:17:35;99436.31;;;8.92;100.00
9077;BME280;4574;51.072;17.174;2023-11-21T04:20:07;99434.53;;;8.93;100.00
9077;BME280;4574;51.072;17.174;2023-11-21T04:22:38;99445.75;;;8.95;100.00
9077;BME280;4574;51.072;17.174;2023-11-21T04:25:12;99439.78;;;8.93;100.00
9077;BME280;4574;51.072;17.174;2023-11-21T04:27:43;99450.19;;;8.94;100.00
9077;BME280;4574;51.072;17.174;2023-11-21T04:30:13;99445.38;;;8.90;100.00
9077;BME280;4574;51.072;17.174;2023-11-21T04:32:42;99453.66;;;8.95;100.00
9077;BME280;4574;51.072;17.174;2023-11-21T04:35:12;99455.41;;;8.86;100.00
9077;BME280;4574;51.072;17.174;2023-11-21T04:37:40;99439.88;;;8.83;100.00
9077;BME280;4574;51.072;17.174;2023-11-21T04:40:10;99457.44;;;8.92;100.00
9077;BME280;4574;51.072;17.174;2023-11-21T04:42:38;99458.28;;;8.93;100.00
9077;BME280;4574;51.072;17.174;2023-11-21T04:45:08;99450.34;;;8.93;100.00
9077;BME280;4574;51.072;17.174;2023-11-21T04:47:40;99442.88;;;8.88;100.00
9077;BME280;4574;51.072;17.174;2023-11-21T04:50:09;99460.84;;;8.85;100.00
9077;BME280;4574;51.072;17.174;2023-11-21T04:52:39;99454.72;;;8.84;100.00
9077;BME280;4574;51.072;17.174;2023-11-21T04:55:08;99449.09;;;8.79;100.00
9077;BME280;4574;51.072;17.174;2023-11-21T04:57:38;99455.88;;;8.82;100.00
9077;BME280;4574;51.072;17.174;2023-11-21T05:00:09;99462.16;;;8.81;100.00
9077;BME280;4574;51.072;17.174;2023-11-21T05:02:40;99458.00;;;8.78;100.00
9077;BME280;4574;51.072;17.174;2023-11-21T05:05:09;99459.09;;;8.68;100.00
9077;BME280;4574;51.072;17.174;2023-11-21T05:07:40;99464.72;;;8.73;100.00
9077;BME280;4574;51.072;17.174;2023-11-21T05:10:10;99470.31;;;8.70;100.00
9077;BME280;4574;51.072;17.174;2023-11-21T05:12:40;99469.63;;;8.68;100.00
9077;BME280;4574;51.072;17.174;2023-11-21T05:15:10;99476.72;;;8.67;100.00
9077;BME280;4574;51.072;17.174;2023-11-21T05:17:42;99473.38;;;8.65;100.00
9077;BME280;4574;51.072;17.174;2023-11-21T05:20:12;99469.78;;;8.66;100.00
9077;BME280;4574;51.072;17.174;2023-11-21T05:22:42;99475.88;;;8.67;100.00
9077;BME280;4574;51.072;17.174;2023-11-21T05:25:11;99479.22;;;8.69;100.00
9077;BME280;4574;51.072;17.174;2023-11-21T05:27:40;99480.88;;;8.70;100.00
9077;BME280;4574;51.072;17.174;2023-11-21T05:30:09;99474.75;;;8.69;100.00
9077;BME280;4574;51.072;17.174;2023-11-21T05:32:39;99482.88;;;8.76;100.00
9077;BME280;4574;51.072;17.174;2023-11-21T05:35:10;99484.38;;;8.78;100.00
9077;BME280;4574;51.072;17.174;2023-11-21T05:37:45;99477.63;;;8.76;100.00
9077;BME280;4574;51.072;17.174;2023-11-21T05:40:15;99485.22;;;8.79;100.00
9077;BME280;4574;51.072;17.174;2023-11-21T05:42:44;99492.84;;;8.82;100.00
9077;BME280;4574;51.072;17.174;2023-11-21T05:45:12;99488.84;;;8.78;100.00
9077;BME280;4574;51.072;17.174;2023-11-21T05:47:43;99491.63;;;8.76;100.00
9077;BME280;4574;51.072;17.174;2023-11-21T05:50:14;99491.63;;;8.76;100.00
9077;BME280;4574;51.072;17.174;2023-11-21T05:52:46;99501.34;;;8.76;100.00
9077;BME280;4574;51.072;17.174;2023-11-21T05:55:15;99502.34;;;8.75;100.00
9077;BME280;4574;51.072;17.174;2023-11-21T05:57:44;99501.00;;;8.71;100.00
9077;BME280;4574;51.072;17.174;2023-11-21T06:00:14;99504.44;;;8.71;100.00
9077;BME280;4574;51.072;17.174;2023-11-21T06:02:48;99502.66;;;8.72;100.00
9077;BME280;4574;51.072;17.174;2023-11-21T06:05:22;99507.25;;;8.70;100.00
9077;BME280;4574;51.072;17.174;2023-11-21T06:07:54;99507.25;;;8.70;100.00
9077;BME280;4574;51.072;17.174;2023-11-21T06:10:23;99513.88;;;8.74;100.00
9077;BME280;4574;51.072;17.174;2023-11-21T06:12:52;99508.44;;;8.75;100.00
9077;BME280;4574;51.072;17.174;2023-11-21T06:15:21;99503.63;;;8.71;100.00
9077;BME280;4574;51.072;17.174;2023-11-21T06:17:51;99508.59;;;8.74;100.00
9077;BME280;4574;51.072;17.174;2023-11-21T06:20:21;99506.09;;;8.72;100.00
9077;BME280;4574;51.072;17.174;2023-11-21T06:22:50;99522.47;;;8.76;100.00
9077;BME280;4574;51.072;17.174;2023-11-21T06:25:21;99521.63;;;8.75;100.00
9077;BME280;4574;51.072;17.174;2023-11-21T06:27:50;99527.06;;;8.74;100.00
9077;BME280;4574;51.072;17.174;2023-11-21T06:30:21;99533.31;;;8.73;100.00
9077;BME280;4574;51.072;17.174;2023-11-21T06:32:50;99536.63;;;8.75;100.00
9077;BME280;4574;51.072;17.174;2023-11-21T06:35:20;99536.63;;;8.75;100.00
9077;BME280;4574;51.072;17.174;2023-11-21T06:37:49;99538.28;;;8.76;100.00
9077;BME280;4574;51.072;17.174;2023-11-21T06:40:20;99545.91;;;8.79;100.00
9077;BME280;4574;51.072;17.174;2023-11-21T06:42:49;99537.00;;;8.80;100.00
9077;BME280;4574;51.072;17.174;2023-11-21T06:45:19;99553.53;;;8.82;100.00
9077;BME280;4574;51.072;17.174;2023-11-21T06:47:48;99553.34;;;8.83;100.00
9077;BME280;4574;51.072;17.174;2023-11-21T06:50:17;99550.03;;;8.81;100.00
9077;BME280;4574;51.072;17.174;2023-11-21T06:52:46;99555.19;;;8.83;100.00
9077;BME280;4574;51.072;17.174;2023-11-21T06:55:15;99558.81;;;8.82;100.00
9077;BME280;4574;51.072;17.174;2023-11-21T06:57:45;99557.13;;;8.81;100.00
9077;BME280;4574;51.072;17.174;2023-11-21T07:00:16;99560.75;;;8.80;100.00
9077;BME280;4574;51.072;17.174;2023-11-21T07:02:45;99552.53;;;8.83;100.00
9077;BME280;4574;51.072;17.174;2023-11-21T07:05:14;99553.22;;;8.85;100.00
9077;BME280;4574;51.072;17.174;2023-11-21T07:07:48;99549.59;;;8.86;100.00
9077;BME280;4574;51.072;17.174;2023-11-21T07:10:17;99551.25;;;8.87;100.00
9077;BME280;4574;51.072;17.174;2023-11-21T07:12:47;99556.00;;;8.83;100.00
9077;BME280;4574;51.072;17.174;2023-11-21T07:15:16;99556.84;;;8.84;100.00
9077;BME280;4574;51.072;17.174;2023-11-21T07:17:46;99550.88;;;8.82;100.00
9077;BME280;4574;51.072;17.174;2023-11-21T07:20:16;99565.44;;;8.86;100.00
9077;BME280;4574;51.072;17.174;2023-11-21T07:22:45;99553.34;;;8.83;100.00
9077;BME280;4574;51.072;17.174;2023-11-21T07:25:14;99560.00;;;8.87;100.00
9077;BME280;4574;51.072;17.174;2023-11-21T07:27:43;99569.56;;;8.88;100.00
9077;BME280;4574;51.072;17.174;2023-11-21T07:30:14;99564.97;;;8.90;100.00
9077;BME280;4574;51.072;17.174;2023-11-21T07:32:42;99569.81;;;8.95;100.00
9077;BME280;4574;51.072;17.174;2023-11-21T07:35:13;99579.22;;;8.97;100.00
9077;BME280;4574;51.072;17.174;2023-11-21T07:37:42;99575.75;;;8.97;100.00
9077;BME280;4574;51.072;17.174;2023-11-21T07:40:11;99578.69;;;8.94;100.00
9077;BME280;4574;51.072;17.174;2023-11-21T07:42:40;99577.03;;;8.93;100.00
9077;BME280;4574;51.072;17.174;2023-11-21T07:45:10;99569.81;;;8.95;100.00
9077;BME280;4574;51.072;17.174;2023-11-21T07:47:39;99578.84;;;8.92;100.00
9077;BME280;4574;51.072;17.174;2023-11-21T07:50:09;99571.75;;;8.93;100.00
9077;BME280;4574;51.072;17.174;2023-11-21T07:52:37;99581.47;;;8.92;100.00
9077;BME280;4574;51.072;17.174;2023-11-21T07:55:08;99583.97;;;8.94;100.00
9077;BME280;4574;51.072;17.174;2023-11-21T07:57:37;99588.28;;;8.95;100.00
9077;BME280;4574;51.072;17.174;2023-11-21T08:00:06;99588.66;;;9.00;100.00
9077;BME280;4574;51.072;17.174;2023-11-21T08:02:36;99579.75;;;9.01;100.00
9077;BME280;4574;51.072;17.174;2023-11-21T08:05:07;99583.88;;;9.03;100.00
9077;BME280;4574;51.072;17.174;2023-11-21T08:07:44;99590.81;;;9.04;100.00
9077;BME280;4574;51.072;17.174;2023-11-21T08:10:13;99589.03;;;9.05;100.00
9077;BME280;4574;51.072;17.174;2023-11-21T08:12:43;99583.56;;;9.06;100.00
9077;BME280;4574;51.072;17.174;2023-11-21T08:15:12;99593.00;;;9.09;100.00
9077;BME280;4574;51.072;17.174;2023-11-21T08:17:41;99583.13;;;9.11;100.00
9077;BME280;4574;51.072;17.174;2023-11-21T08:20:12;99595.66;;;9.09;100.00
9077;BME280;4574;51.072;17.174;2023-11-21T08:22:44;99588.72;;;9.08;100.00
9077;BME280;4574;51.072;17.174;2023-11-21T08:25:15;99598.00;;;9.12;100.00
9077;BME280;4574;51.072;17.174;2023-11-21T08:27:45;99592.72;;;9.12;100.00
9077;BME280;4574;51.072;17.174;2023-11-21T08:30:13;99604.38;;;9.09;100.00
9077;BME280;4574;51.072;17.174;2023-11-21T08:32:43;99598.28;;;9.09;100.00
9077;BME280;4574;51.072;17.174;2023-11-21T08:35:13;99614.13;;;9.09;100.00
9077;BME280;4574;51.072;17.174;2023-11-21T08:37:43;99614.44;;;9.06;100.00
9077;BME280;4574;51.072;17.174;2023-11-21T08:40:12;99605.53;;;9.07;100.00
9077;BME280;4574;51.072;17.174;2023-11-21T08:42:44;99609.97;;;9.06;100.00
9077;BME280;4574;51.072;17.174;2023-11-21T08:45:13;99624.84;;;9.07;100.00
9077;BME280;4574;51.072;17.174;2023-11-21T08:47:44;99616.09;;;9.07;100.00
9077;BME280;4574;51.072;17.174;2023-11-21T08:50:15;99622.19;;;9.07;100.00
9077;BME280;4574;51.072;17.174;2023-11-21T08:52:44;99618.06;;;9.05;100.00
9077;BME280;4574;51.072;17.174;2023-11-21T08:55:14;99618.88;;;9.05;100.00
9077;BME280;4574;51.072;17.174;2023-11-21T08:57:44;99615.78;;;9.10;100.00
9077;BME280;4574;51.072;17.174;2023-11-21T09:00:13;99615.78;;;9.10;100.00
9077;BME280;4574;51.072;17.174;2023-11-21T09:02:44;99617.16;;;9.14;100.00
9077;BME280;4574;51.072;17.174;2023-11-21T09:05:15;99608.56;;;9.12;100.00
9077;BME280;4574;51.072;17.174;2023-11-21T09:07:44;99615.19;;;9.16;100.00
9077;BME280;4574;51.072;17.174;2023-11-21T09:10:16;99619.13;;;9.12;100.00
9077;BME280;4574;51.072;17.174;2023-11-21T09:12:44;99611.31;;;9.10;100.00
9077;BME280;4574;51.072;17.174;2023-11-21T09:15:13;99614.56;;;9.04;100.00
9077;BME280;4574;51.072;17.174;2023-11-21T09:17:42;99615.25;;;9.06;100.00
9077;BME280;4574;51.072;17.174;2023-11-21T09:20:12;99620.41;;;9.08;100.00
9077;BME280;4574;51.072;17.174;2023-11-21T09:22:43;99626.34;;;9.10;100.00
9077;BME280;4574;51.072;17.174;2023-11-21T09:25:13;99628.16;;;9.09;100.00
9077;BME280;4574;51.072;17.174;2023-11-21T09:27:42;99622.06;;;9.09;100.00
9077;BME280;4574;51.072;17.174;2023-11-21T09:30:11;99617.16;;;9.14;100.00
9077;BME280;4574;51.072;17.174;2023-11-21T09:32:41;99619.47;;;9.17;100.00
9077;BME280;4574;51.072;17.174;2023-11-21T09:35:12;99622.31;;;9.23;100.00
9077;BME280;4574;51.072;17.174;2023-11-21T09:37:44;99623.47;;;9.21;100.00
9077;BME280;4574;51.072;17.174;2023-11-21T09:40:20;99630.41;;;9.22;100.00
9077;BME280;4574;51.072;17.174;2023-11-21T09:42:54;99629.81;;;9.27;100.00
9077;BME280;4574;51.072;17.174;2023-11-21T09:45:28;99621.22;;;9.26;100.00
9077;BME280;4574;51.072;17.174;2023-11-21T09:47:58;99632.06;;;9.23;100.00
9077;BME280;4574;51.072;17.174;2023-11-21T09:50:27;99631.78;;;9.26;100.00
9077;BME280;4574;51.072;17.174;2023-11-21T09:53:08;99635.22;;;9.26;100.00
9077;BME280;4574;51.072;17.174;2023-11-21T09:55:43;99627.84;;;9.29;100.00
9077;BME280;4574;51.072;17.174;2023-11-21T09:58:13;99630.84;;;9.34;100.00
9077;BME280;4574;51.072;17.174;2023-11-21T10:00:43;99631.97;;;9.32;100.00
9077;BME280;4574;51.072;17.174;2023-11-21T10:03:12;99634.84;;;9.38;100.00
9077;BME280;4574;51.072;17.174;2023-11-21T10:05:42;99635.53;;;9.40;100.00
9077;BME280;4574;51.072;17.174;2023-11-21T10:08:14;99634.72;;;9.40;100.00
9077;BME280;4574;51.072;17.174;2023-11-21T10:10:44;99638.34;;;9.39;100.00
9077;BME280;4574;51.072;17.174;2023-11-21T10:13:13;99633.34;;;9.36;100.00
9077;BME280;4574;51.072;17.174;2023-11-21T10:15:44;99637.66;;;9.37;100.00
9077;BME280;4574;51.072;17.174;2023-11-21T10:18:17;99642.16;;;9.44;100.00
9077;BME280;4574;51.072;17.174;2023-11-21T10:20:46;99643.81;;;9.45;100.00
9077;BME280;4574;51.072;17.174;2023-11-21T10:23:22;99638.53;;;9.45;100.00
9077;BME280;4574;51.072;17.174;2023-11-21T10:25:51;99645.78;;;9.43;100.00
9077;BME280;4574;51.072;17.174;2023-11-21T10:28:21;99636.19;;;9.42;100.00
9077;BME280;4574;51.072;17.174;2023-11-21T10:30:50;99636.06;;;9.44;100.00
9077;BME280;4574;51.072;17.174;2023-11-21T10:33:27;99647.66;;;9.51;100.00
9077;BME280;4574;51.072;17.174;2023-11-21T10:35:56;99650.69;;;9.56;100.00
9077;BME280;4574;51.072;17.174;2023-11-21T10:38:26;99648.19;;;9.54;100.00
9077;BME280;4574;51.072;17.174;2023-11-21T10:40:55;99651.81;;;9.53;100.00
9077;BME280;4574;51.072;17.174;2023-11-21T10:43:25;99663.03;;;9.55;100.00
9077;BME280;4574;51.072;17.174;2023-11-21T10:45:57;99657.94;;;9.54;100.00
9077;BME280;4574;51.072;17.174;2023-11-21T10:48:26;99668.28;;;9.47;100.00
9077;BME280;4574;51.072;17.174;2023-11-21T10:50:55;99665.25;;;9.42;100.00
9077;BME280;4574;51.072;17.174;2023-11-21T10:53:30;99671.16;;;9.36;100.00
9077;BME280;4574;51.072;17.174;2023-11-21T10:56:02;99671.75;;;9.30;100.00
9077;BME280;4574;51.072;17.174;2023-11-21T10:58:35;99680.28;;;9.25;100.00
9077;BME280;4574;51.072;17.174;2023-11-21T11:01:06;99679.66;;;9.13;100.00
9077;BME280;4574;51.072;17.174;2023-11-21T11:03:38;99681.13;;;9.08;100.00
9077;BME280;4574;51.072;17.174;2023-11-21T11:06:07;99686.69;;;9.05;100.00
9077;BME280;4574;51.072;17.174;2023-11-21T11:08:40;99685.63;;;8.98;100.00
9077;BME280;4574;51.072;17.174;2023-11-21T11:11:09;99677.56;;;8.99;100.00
9077;BME280;4574;51.072;17.174;2023-11-21T11:13:39;99687.91;;;8.93;100.00
9077;BME280;4574;51.072;17.174;2023-11-21T11:16:12;99679.28;;;8.91;100.00
9077;BME280;4574;51.072;17.174;2023-11-21T11:18:44;99687.81;;;8.85;100.00
9077;BME280;4574;51.072;17.174;2023-11-21T11:21:24;99685.97;;;8.85;100.00
9077;BME280;4574;51.072;17.174;2023-11-21T11:24:11;99688.50;;;8.87;100.00
9077;BME280;4574;51.072;17.174;2023-11-21T11:26:47;99685.97;;;8.85;100.00
9077;BME280;4574;51.072;17.174;2023-11-21T11:29:27;99687.81;;;8.85;100.00
9077;BME280;4574;51.072;17.174;2023-11-21T11:32:08;99693.09;;;8.85;100.00
9077;BME280;4574;51.072;17.174;2023-11-21T11:34:43;99694.06;;;8.84;100.00
9077;BME280;4574;51.072;17.174;2023-11-21T11:37:13;99697.38;;;8.86;100.00
9077;BME280;4574;51.072;17.174;2023-11-21T11:39:44;99699.06;;;8.87;100.00
9077;BME280;4574;51.072;17.174;2023-11-21T11:42:14;99704.63;;;8.84;100.00
9077;BME280;4574;51.072;17.174;2023-11-21T11:44:47;99712.66;;;8.82;100.00
9077;BME280;4574;51.072;17.174;2023-11-21T11:47:24;99714.50;;;8.82;100.00
9077;BME280;4574;51.072;17.174;2023-11-21T11:50:01;99714.78;;;8.79;100.00
9077;BME280;4574;51.072;17.174;2023-11-21T11:52:39;99716.59;;;8.78;100.00
9077;BME280;4574;51.072;17.174;2023-11-21T11:55:11;99728.31;;;8.66;100.00
9077;BME280;4574;51.072;17.174;2023-11-21T11:57:41;99722.53;;;8.63;100.00
9077;BME280;4574;51.072;17.174;2023-11-21T12:00:11;99719.19;;;8.61;100.00
9077;BME280;4574;51.072;17.174;2023-11-21T12:02:45;99721.56;;;8.54;100.00
9077;BME280;4574;51.072;17.174;2023-11-21T12:05:16;99722.84;;;8.50;100.00
9077;BME280;4574;51.072;17.174;2023-11-21T12:07:47;99725.91;;;8.46;100.00
9077;BME280;4574;51.072;17.174;2023-11-21T12:10:19;99727.84;;;8.44;100.00
9077;BME280;4574;51.072;17.174;2023-11-21T12:12:49;99729.00;;;8.41;100.00
9077;BME280;4574;51.072;17.174;2023-11-21T12:15:19;99730.38;;;8.36;100.00
9077;BME280;4574;51.072;17.174;2023-11-21T12:17:50;99728.56;;;8.73;100.00
9077;BME280;4574;51.072;17.174;2023-11-21T12:20:22;99727.91;;;8.71;100.00
9077;BME280;4574;51.072;17.174;2023-11-21T12:22:52;99735.84;;;8.61;100.00
9077;BME280;4574;51.072;17.174;2023-11-21T12:25:24;99733.53;;;8.49;100.00
9077;BME280;4574;51.072;17.174;2023-11-21T12:27:56;99730.66;;;8.33;100.00
9077;BME280;4574;51.072;17.174;2023-11-21T12:30:26;99739.31;;;8.16;100.00
9077;BME280;4574;51.072;17.174;2023-11-21T12:32:56;99740.41;;;8.23;100.00
9077;BME280;4574;51.072;17.174;2023-11-21T12:35:26;99735.28;;;8.12;100.00
9077;BME280;4574;51.072;17.174;2023-11-21T12:37:56;99748.91;;;8.17;100.00
9077;BME280;4574;51.072;17.174;2023-11-21T12:40:27;99759.84;;;8.12;100.00
9077;BME280;4574;51.072;17.174;2023-11-21T12:42:56;99765.53;;;8.08;100.00
9077;BME280;4574;51.072;17.174;2023-11-21T12:45:27;99770.41;;;8.03;100.00
9077;BME280;4574;51.072;17.174;2023-11-21T12:47:56;99777.09;;;7.97;100.00
9077;BME280;4574;51.072;17.174;2023-11-21T12:50:28;99774.06;;;7.93;100.00
9077;BME280;4574;51.072;17.174;2023-11-21T12:53:00;99781.81;;;7.85;100.00
9077;BME280;4574;51.072;17.174;2023-11-21T12:55:32;99785.69;;;7.71;100.00
9077;BME280;4574;51.072;17.174;2023-11-21T12:58:07;99782.78;;;7.74;100.00
9077;BME280;4574;51.072;17.174;2023-11-21T13:00:39;99791.66;;;7.73;100.00
9077;BME280;4574;51.072;17.174;2023-11-21T13:03:11;99798.19;;;7.69;100.00
9077;BME280;4574;51.072;17.174;2023-11-21T13:05:45;99802.19;;;7.64;100.00
9077;BME280;4574;51.072;17.174;2023-11-21T13:08:20;99811.75;;;7.65;100.00
9077;BME280;4574;51.072;17.174;2023-11-21T13:10:54;99809.81;;;7.57;100.00
9077;BME280;4574;51.072;17.174;2023-11-21T13:13:25;99817.69;;;7.48;100.00
9077;BME280;4574;51.072;17.174;2023-11-21T13:15:56;99820.91;;;7.51;100.00
9077;BME280;4574;51.072;17.174;2023-11-21T13:18:28;99825.03;;;7.35;100.00
9077;BME280;4574;51.072;17.174;2023-11-21T13:21:01;99824.22;;;7.44;100.00
9077;BME280;4574;51.072;17.174;2023-11-21T13:23:34;99827.66;;;7.35;100.00
9077;BME280;4574;51.072;17.174;2023-11-21T13:26:06;99838.34;;;7.33;100.00